Time;durP1;ratioP1;P1;durP2;ratioP2;P2;SDS_P1;SDS_P2;PMS_P1;PMS_P2;Temp;Humidity;BMP_temperature;BMP_pressure;BME280_temperature;BME280_humidity;BME280_pressure;Samples;Min_cycle;Max_cycle;Signal;HPM_P1;HPM_P2
2022/06/26 00:00:45;;;;;;;6.15;3.65;;;16.10;78.30;;;;;;5029177;28;20147;-84
2022/06/26 00:03:12;;;;;;;7.55;3.70;;;16.10;78.40;;;;;;5029111;28;20410;-83
2022/06/26 00:05:39;;;;;;;6.15;3.50;;;16.10;78.40;;;;;;5028693;28;20049;-84
2022/06/26 00:08:07;;;;;;;6.50;3.42;;;16.10;78.30;;;;;;5029064;28;20042;-84
2022/06/26 00:10:34;;;;;;;5.90;3.42;;;16.10;78.40;;;;;;5031475;28;20049;-83
2022/06/26 00:13:01;;;;;;;7.03;3.22;;;16.10;78.40;;;;;;5030880;28;20053;-84
2022/06/26 00:15:28;;;;;;;5.97;3.30;;;16.10;78.40;;;;;;5028650;28;20099;-84
2022/06/26 00:17:55;;;;;;;6.07;3.35;;;16.10;78.40;;;;;;5025813;28;20107;-84
2022/06/26 00:20:22;;;;;;;6.93;3.30;;;16.00;78.40;;;;;;5027576;28;20052;-85
2022/06/26 00:22:49;;;;;;;4.80;2.65;;;16.00;78.30;;;;;;5023647;28;20041;-84
2022/06/26 00:25:16;;;;;;;5.15;2.85;;;16.00;78.40;;;;;;5033262;28;20513;-85
2022/06/26 00:27:45;;;;;;;4.88;2.63;;;16.00;78.40;;;;;;5028187;28;20529;-85
2022/06/26 00:30:13;;;;;;;4.95;2.60;;;16.00;78.30;;;;;;5030035;28;20041;-84
2022/06/26 00:32:41;;;;;;;5.28;2.97;;;16.00;78.40;;;;;;5028032;28;20045;-85
2022/06/26 00:35:08;;;;;;;6.18;3.25;;;16.00;78.30;;;;;;5027100;28;20046;-84
2022/06/26 00:37:36;;;;;;;6.68;2.75;;;16.00;78.30;;;;;;5030512;28;20401;-84
2022/06/26 00:40:04;;;;;;;6.07;2.78;;;15.90;78.30;;;;;;5029165;28;20100;-85
2022/06/26 00:42:31;;;;;;;6.35;2.75;;;15.90;78.30;;;;;;5027855;28;20068;-86
2022/06/26 00:44:58;;;;;;;6.70;2.80;;;16.00;78.20;;;;;;5028066;28;20045;-85
2022/06/26 00:47:25;;;;;;;6.60;3.17;;;15.90;78.20;;;;;;5026455;28;20441;-85
2022/06/26 00:49:53;;;;;;;6.03;2.97;;;15.90;78.20;;;;;;5012366;28;20045;-86
2022/06/26 00:52:21;;;;;;;5.43;2.90;;;15.90;78.20;;;;;;5015521;28;20460;-85
2022/06/26 00:54:50;;;;;;;4.70;2.70;;;15.90;78.20;;;;;;5026871;28;20067;-85
2022/06/26 00:57:18;;;;;;;5.40;2.80;;;15.90;78.20;;;;;;5026510;28;20080;-85
2022/06/26 00:59:47;;;;;;;6.03;2.78;;;15.90;78.10;;;;;;5027635;28;20525;-86
2022/06/26 01:02:14;;;;;;;5.00;3.00;;;15.90;78.10;;;;;;5027330;28;20049;-87
2022/06/26 01:04:42;;;;;;;5.43;2.80;;;15.90;78.10;;;;;;5029562;28;20046;-86
2022/06/26 01:07:11;;;;;;;6.50;3.28;;;15.90;78.10;;;;;;5030974;28;20056;-85
2022/06/26 01:09:38;;;;;;;5.70;2.63;;;15.90;78.10;;;;;;5030831;28;20049;-86
2022/06/26 01:12:06;;;;;;;5.88;3.00;;;15.90;78.10;;;;;;5024671;28;20062;-86
2022/06/26 01:14:38;;;;;;;6.43;2.72;;;15.80;78.10;;;;;;5025898;28;20042;-86
2022/06/26 01:17:05;;;;;;;6.57;3.13;;;15.80;78.10;;;;;;5028655;28;20061;-85
2022/06/26 01:19:33;;;;;;;5.60;3.35;;;15.80;78.10;;;;;;5028908;28;20524;-86
2022/06/26 01:22:00;;;;;;;7.22;3.38;;;15.80;78.00;;;;;;5030473;28;20049;-87
2022/06/26 01:24:27;;;;;;;6.78;3.40;;;15.80;78.00;;;;;;5030339;28;20060;-86
2022/06/26 01:26:54;;;;;;;6.60;3.08;;;15.70;78.00;;;;;;5030445;28;20053;-86
2022/06/26 01:29:21;;;;;;;5.70;3.00;;;15.70;78.00;;;;;;5029247;28;20056;-86
2022/06/26 01:31:48;;;;;;;6.75;3.38;;;15.70;78.00;;;;;;5028784;28;20053;-86
2022/06/26 01:34:16;;;;;;;7.15;3.13;;;15.60;78.00;;;;;;5032169;28;20045;-86
2022/06/26 01:36:43;;;;;;;6.57;3.10;;;15.70;78.00;;;;;;5030155;28;20045;-86
2022/06/26 01:39:10;;;;;;;6.63;3.17;;;15.60;78.00;;;;;;5030217;28;20049;-86
2022/06/26 01:41:37;;;;;;;7.13;3.35;;;15.60;78.00;;;;;;5028477;28;20052;-86
2022/06/26 01:44:07;;;;;;;8.50;3.13;;;15.60;78.00;;;;;;5028758;28;20549;-86
2022/06/26 01:46:34;;;;;;;8.98;3.35;;;15.60;78.00;;;;;;5030564;28;20052;-86
2022/06/26 01:49:02;;;;;;;8.00;3.50;;;15.50;78.00;;;;;;5030526;28;20049;-86
2022/06/26 01:51:29;;;;;;;6.05;3.45;;;15.50;78.00;;;;;;5028788;28;20052;-86
2022/06/26 01:53:56;;;;;;;5.57;3.10;;;15.50;78.00;;;;;;5027310;28;20049;-85
2022/06/26 01:56:23;;;;;;;5.55;3.03;;;15.50;78.00;;;;;;5028928;28;20041;-86
2022/06/26 01:58:50;;;;;;;8.13;3.20;;;15.40;78.00;;;;;;5029998;28;20045;-85
2022/06/26 02:01:17;;;;;;;5.97;3.20;;;15.40;78.00;;;;;;5031501;28;20103;-87
2022/06/26 02:03:47;;;;;;;6.47;2.72;;;15.40;78.00;;;;;;5030048;28;20579;-86
2022/06/26 02:06:14;;;;;;;5.78;2.85;;;15.40;78.00;;;;;;5029926;28;20052;-86
2022/06/26 02:08:41;;;;;;;5.63;2.90;;;15.40;78.00;;;;;;5029891;28;20041;-86
2022/06/26 02:13:54;;;;;;;11.13;3.25;;;15.40;78.00;;;;;;5013115;28;20088;-85
2022/06/26 02:16:24;;;;;;;5.40;2.65;;;15.40;78.10;;;;;;5031908;28;20049;-86
2022/06/26 02:18:53;;;;;;;6.53;3.00;;;15.30;78.00;;;;;;5030482;28;20041;-86
2022/06/26 02:21:23;;;;;;;6.35;2.72;;;15.30;78.00;;;;;;5033459;28;20049;-86
2022/06/26 02:23:52;;;;;;;6.38;2.78;;;15.30;78.00;;;;;;5031797;28;20052;-86
2022/06/26 02:26:20;;;;;;;6.20;2.60;;;15.30;78.00;;;;;;5033473;28;20052;-86
2022/06/26 02:28:47;;;;;;;5.47;2.40;;;15.30;78.00;;;;;;5031244;28;20053;-86
2022/06/26 02:31:15;;;;;;;5.60;2.70;;;15.20;78.10;;;;;;5033369;28;20048;-85
2022/06/26 02:33:42;;;;;;;9.18;2.97;;;15.20;78.10;;;;;;5031995;28;20050;-86
2022/06/26 02:36:09;;;;;;;6.00;2.70;;;15.20;78.10;;;;;;5033117;28;20060;-86
2022/06/26 02:38:37;;;;;;;5.70;2.67;;;15.20;78.10;;;;;;5030356;28;20045;-86
2022/06/26 02:41:05;;;;;;;5.20;2.50;;;15.20;78.10;;;;;;5033476;28;20053;-86
2022/06/26 02:43:33;;;;;;;5.53;2.63;;;15.10;78.10;;;;;;5033680;28;20064;-86
2022/06/26 02:46:01;;;;;;;11.07;2.83;;;15.10;78.10;;;;;;5034429;28;20045;-86
2022/06/26 02:48:28;;;;;;;5.28;2.55;;;15.10;78.20;;;;;;5032802;28;20518;-86
2022/06/26 02:50:56;;;;;;;7.75;2.72;;;15.10;78.20;;;;;;5031774;28;20053;-86
2022/06/26 02:53:23;;;;;;;6.15;2.92;;;15.10;78.20;;;;;;5032992;28;20072;-88
2022/06/26 02:55:50;;;;;;;5.13;2.60;;;15.10;78.20;;;;;;5033095;28;20054;-88
2022/06/26 02:58:17;;;;;;;6.72;2.70;;;15.00;78.20;;;;;;5034396;28;20049;-87
2022/06/26 03:00:44;;;;;;;5.85;2.83;;;15.00;78.30;;;;;;5031543;28;20053;-87
2022/06/26 03:03:11;;;;;;;6.80;2.80;;;15.00;78.30;;;;;;5031112;28;20057;-87
2022/06/26 03:05:38;;;;;;;5.07;2.90;;;15.00;78.30;;;;;;5032636;28;20041;-86
2022/06/26 03:08:05;;;;;;;5.40;2.65;;;15.00;78.30;;;;;;5031190;28;20062;-87
2022/06/26 03:10:33;;;;;;;6.65;2.63;;;15.00;78.30;;;;;;5033700;28;20517;-86
2022/06/26 03:13:00;;;;;;;5.78;2.55;;;15.00;78.30;;;;;;5033508;28;20053;-86
2022/06/26 03:15:27;;;;;;;6.28;2.60;;;14.90;78.30;;;;;;5032462;28;20441;-86
2022/06/26 03:17:54;;;;;;;6.53;2.97;;;14.90;78.30;;;;;;5032491;28;20045;-86
2022/06/26 03:20:21;;;;;;;7.50;2.75;;;14.90;78.30;;;;;;5032608;28;20045;-86
2022/06/26 03:22:50;;;;;;;5.65;2.72;;;14.90;78.30;;;;;;5032414;28;20056;-87
2022/06/26 03:25:17;;;;;;;5.18;2.20;;;14.90;78.30;;;;;;5034160;28;20045;-87
2022/06/26 03:27:44;;;;;;;5.53;2.60;;;14.90;78.30;;;;;;5031772;28;20144;-86
2022/06/26 03:30:12;;;;;;;7.45;2.78;;;14.90;78.40;;;;;;5031700;28;20490;-86
2022/06/26 03:32:39;;;;;;;5.70;2.75;;;14.90;78.40;;;;;;5031541;28;20057;-86
2022/06/26 03:35:07;;;;;;;5.63;2.80;;;14.90;78.40;;;;;;5032202;28;20057;-86
2022/06/26 03:37:34;;;;;;;5.00;2.70;;;14.80;78.40;;;;;;5031743;28;20495;-86
2022/06/26 03:40:02;;;;;;;5.22;2.92;;;14.90;78.40;;;;;;5030501;28;20041;-86
2022/06/26 03:42:29;;;;;;;6.00;2.63;;;14.80;78.40;;;;;;5028898;28;20472;-86
2022/06/26 03:44:56;;;;;;;5.45;2.75;;;14.80;78.40;;;;;;5029114;28;20528;-86
2022/06/26 03:47:23;;;;;;;5.38;2.70;;;14.80;78.40;;;;;;5030926;28;20096;-86
2022/06/26 03:49:53;;;;;;;5.55;2.85;;;14.80;78.40;;;;;;5031366;28;20538;-86
2022/06/26 03:52:24;;;;;;;8.82;2.70;;;14.80;78.40;;;;;;5029655;28;20053;-87
2022/06/26 03:54:52;;;;;;;6.32;3.00;;;14.70;78.40;;;;;;5032172;28;20446;-87
2022/06/26 03:57:19;;;;;;;6.00;2.63;;;14.70;78.40;;;;;;5031424;28;20053;-86
2022/06/26 04:00:00;;;;;;;7.07;2.60;;;14.70;78.50;;;;;;5031503;28;20506;-86
2022/06/26 04:02:27;;;;;;;6.55;2.65;;;14.70;78.50;;;;;;5031551;28;20532;-86
2022/06/26 04:04:54;;;;;;;6.65;2.72;;;14.70;78.60;;;;;;5031763;28;20095;-86
2022/06/26 04:07:21;;;;;;;6.15;2.70;;;14.70;78.60;;;;;;5033424;28;20499;-87
2022/06/26 04:09:48;;;;;;;7.75;2.83;;;14.70;78.60;;;;;;5031521;28;20046;-87
2022/06/26 04:12:15;;;;;;;5.95;2.88;;;14.70;78.70;;;;;;5030015;28;20060;-88
2022/06/26 04:14:42;;;;;;;5.78;2.58;;;14.70;78.70;;;;;;5031089;28;20045;-87
2022/06/26 04:17:09;;;;;;;5.18;2.65;;;14.70;78.70;;;;;;5030159;28;20042;-87
2022/06/26 04:19:36;;;;;;;7.95;2.88;;;14.70;78.80;;;;;;5031236;28;20046;-87
2022/06/26 04:22:03;;;;;;;8.35;2.70;;;14.70;78.80;;;;;;5029539;28;20056;-87
2022/06/26 04:24:30;;;;;;;7.85;2.58;;;14.70;78.80;;;;;;5027977;28;20061;-86
2022/06/26 04:26:57;;;;;;;5.55;2.70;;;14.70;78.80;;;;;;5029941;28;20045;-86
2022/06/26 04:29:24;;;;;;;6.47;2.80;;;14.70;78.90;;;;;;5030888;28;20041;-86
2022/06/26 04:31:51;;;;;;;6.22;2.53;;;14.70;78.90;;;;;;5029926;28;20065;-86
2022/06/26 04:34:18;;;;;;;4.95;2.42;;;14.70;78.90;;;;;;5032963;28;20137;-86
2022/06/26 04:36:46;;;;;;;5.80;2.63;;;14.70;79.00;;;;;;5030925;28;20053;-86
2022/06/26 04:39:12;;;;;;;5.63;2.38;;;14.70;79.00;;;;;;5027837;28;20052;-85
2022/06/26 04:41:39;;;;;;;4.85;2.53;;;14.70;79.00;;;;;;5030655;28;20520;-86
2022/06/26 04:44:09;;;;;;;9.68;2.63;;;14.70;79.00;;;;;;5030721;28;20046;-86
2022/06/26 04:46:37;;;;;;;10.48;3.17;;;14.70;79.00;;;;;;5030119;28;20453;-86
2022/06/26 04:49:05;;;;;;;7.93;2.75;;;14.70;79.10;;;;;;5030754;28;20064;-87
2022/06/26 04:51:35;;;;;;;5.72;2.85;;;14.70;79.10;;;;;;5030791;28;20045;-86
2022/06/26 04:54:03;;;;;;;4.80;2.60;;;14.70;79.10;;;;;;5030318;28;20120;-86
2022/06/26 04:56:31;;;;;;;7.03;2.80;;;14.70;79.10;;;;;;5027940;28;20407;-86
2022/06/26 04:58:58;;;;;;;4.68;2.20;;;14.70;79.10;;;;;;5029255;28;20501;-86
2022/06/26 05:01:26;;;;;;;6.22;2.55;;;14.70;79.20;;;;;;5031080;28;20049;-85
2022/06/26 05:03:53;;;;;;;5.38;2.75;;;14.70;79.20;;;;;;5029543;28;20082;-85
2022/06/26 05:06:22;;;;;;;4.97;2.75;;;14.70;79.20;;;;;;5029030;28;20088;-86
2022/06/26 05:08:49;;;;;;;6.43;2.80;;;14.70;79.20;;;;;;5030290;28;20046;-87
2022/06/26 05:11:16;;;;;;;9.45;2.70;;;14.80;79.30;;;;;;5030536;28;20046;-86
2022/06/26 05:13:43;;;;;;;7.38;2.85;;;14.70;79.30;;;;;;5029295;28;20053;-86
2022/06/26 05:16:10;;;;;;;6.32;2.53;;;14.70;79.30;;;;;;5032341;28;20049;-86
2022/06/26 05:18:37;;;;;;;6.22;2.67;;;14.70;79.30;;;;;;5030463;28;20103;-86
2022/06/26 05:21:04;;;;;;;6.18;2.60;;;14.70;79.30;;;;;;5030475;28;20050;-86
2022/06/26 05:23:31;;;;;;;8.00;3.00;;;14.70;79.30;;;;;;5029837;28;20045;-86
2022/06/26 05:25:58;;;;;;;12.18;2.80;;;14.70;79.40;;;;;;5030474;28;20049;-85
2022/06/26 05:28:25;;;;;;;5.28;2.95;;;14.80;79.40;;;;;;5031623;28;20465;-86
2022/06/26 05:30:52;;;;;;;8.10;2.83;;;14.70;79.40;;;;;;5028171;28;20061;-86
2022/06/26 05:33:19;;;;;;;7.55;2.60;;;14.70;79.40;;;;;;5030088;28;20442;-86
2022/06/26 05:35:46;;;;;;;7.53;2.72;;;14.80;79.50;;;;;;5028924;28;20465;-87
2022/06/26 05:38:13;;;;;;;5.97;2.80;;;14.80;79.50;;;;;;5028475;28;20461;-86
2022/06/26 05:40:40;;;;;;;11.88;3.10;;;14.80;79.50;;;;;;5030421;28;20422;-86
2022/06/26 05:43:07;;;;;;;6.63;3.10;;;14.80;79.60;;;;;;5032036;28;20053;-87
2022/06/26 05:45:34;;;;;;;7.05;2.72;;;14.80;79.60;;;;;;5028612;28;20107;-86
2022/06/26 05:48:01;;;;;;;6.93;2.47;;;14.90;79.60;;;;;;5030166;28;20046;-86
2022/06/26 05:50:28;;;;;;;6.45;2.60;;;14.90;79.60;;;;;;5030026;28;20050;-86
2022/06/26 05:52:55;;;;;;;5.05;2.40;;;14.90;79.70;;;;;;5029252;28;20048;-85
2022/06/26 05:55:22;;;;;;;6.72;2.50;;;14.90;79.70;;;;;;5033514;28;20046;-86
2022/06/26 05:57:49;;;;;;;8.35;2.95;;;14.90;79.70;;;;;;5031584;28;20057;-86
2022/06/26 06:00:16;;;;;;;7.97;2.70;;;14.90;79.70;;;;;;5033782;28;20049;-85
2022/06/26 06:02:44;;;;;;;11.27;2.92;;;14.90;79.70;;;;;;5030965;28;20041;-85
2022/06/26 06:05:11;;;;;;;6.63;2.40;;;14.90;79.70;;;;;;5034001;28;20502;-84
2022/06/26 06:07:38;;;;;;;4.30;2.70;;;15.00;79.70;;;;;;5033811;28;20449;-85
2022/06/26 06:10:07;;;;;;;7.65;2.72;;;15.00;79.60;;;;;;5033605;28;20085;-85
2022/06/26 06:12:34;;;;;;;7.53;2.42;;;15.00;79.60;;;;;;5030729;28;20056;-85
2022/06/26 06:15:01;;;;;;;8.40;2.60;;;15.10;79.60;;;;;;5033726;28;20437;-85
2022/06/26 06:17:40;;;;;;;7.45;2.67;;;15.10;79.60;;;;;;5032212;28;20494;-85
2022/06/26 06:20:15;;;;;;;8.95;2.15;;;15.10;79.60;;;;;;5033630;28;20045;-85
2022/06/26 06:22:48;;;;;;;7.13;2.55;;;15.10;79.60;;;;;;5032046;28;20049;-85
2022/06/26 06:25:15;;;;;;;6.38;2.28;;;15.20;79.60;;;;;;5034577;28;20053;-86
2022/06/26 06:27:43;;;;;;;9.82;2.85;;;15.20;79.60;;;;;;5033397;28;20115;-84
2022/06/26 06:30:11;;;;;;;5.15;2.50;;;15.20;79.60;;;;;;5033376;28;20045;-86
2022/06/26 06:32:40;;;;;;;6.78;2.13;;;15.30;79.60;;;;;;5033181;28;20479;-84
2022/06/26 06:35:13;;;;;;;7.55;2.42;;;15.30;79.60;;;;;;5032976;28;20055;-85
2022/06/26 06:37:41;;;;;;;7.05;2.30;;;15.30;79.50;;;;;;5033352;28;20445;-86
2022/06/26 06:40:11;;;;;;;6.22;2.45;;;15.30;79.50;;;;;;5033841;28;20049;-84
2022/06/26 06:42:38;;;;;;;5.45;2.30;;;15.30;79.50;;;;;;5032913;28;20061;-84
2022/06/26 06:45:06;;;;;;;6.10;2.45;;;15.30;79.50;;;;;;5033283;28;20056;-86
2022/06/26 06:47:33;;;;;;;6.40;2.38;;;15.40;79.50;;;;;;5033044;28;20053;-85
2022/06/26 06:50:01;;;;;;;5.85;2.65;;;15.40;79.40;;;;;;5032674;28;20049;-84
2022/06/26 06:52:28;;;;;;;7.97;2.60;;;15.40;79.40;;;;;;5033264;28;20053;-86
2022/06/26 06:54:55;;;;;;;4.97;2.05;;;15.40;79.40;;;;;;5032281;28;20056;-86
2022/06/26 06:57:21;;;;;;;6.03;2.50;;;15.50;79.30;;;;;;5031434;28;20053;-85
2022/06/26 06:59:48;;;;;;;5.50;2.22;;;15.50;79.30;;;;;;5032818;28;20394;-85
2022/06/26 07:02:15;;;;;;;9.35;2.20;;;15.50;79.30;;;;;;5032457;28;20131;-84
2022/06/26 07:04:42;;;;;;;9.90;2.13;;;15.60;79.20;;;;;;5032198;28;20077;-84
2022/06/26 07:07:10;;;;;;;7.20;2.97;;;15.60;79.10;;;;;;5033431;28;20104;-84
2022/06/26 07:09:36;;;;;;;8.43;1.90;;;15.60;79.00;;;;;;5032564;28;20050;-84
2022/06/26 07:12:04;;;;;;;5.97;2.10;;;15.60;79.00;;;;;;5032523;28;20045;-84
2022/06/26 07:14:31;;;;;;;6.40;2.00;;;15.70;78.90;;;;;;5031189;28;20103;-84
2022/06/26 07:16:58;;;;;;;5.30;1.77;;;15.70;78.80;;;;;;5032652;28;20457;-84
2022/06/26 07:19:25;;;;;;;9.80;2.35;;;15.80;78.70;;;;;;5032628;28;20053;-84
2022/06/26 07:21:53;;;;;;;7.80;1.70;;;15.80;78.60;;;;;;5031737;28;20049;-84
2022/06/26 07:24:20;;;;;;;7.90;2.03;;;15.80;78.50;;;;;;5029487;28;20049;-83
2022/06/26 07:26:47;;;;;;;9.32;2.05;;;15.90;78.40;;;;;;5032200;28;20049;-84
2022/06/26 07:29:14;;;;;;;6.45;2.33;;;15.90;78.20;;;;;;5032159;28;20553;-84
2022/06/26 07:31:41;;;;;;;7.05;2.10;;;15.90;78.10;;;;;;5032707;28;20056;-84
2022/06/26 07:34:15;;;;;;;5.53;1.92;;;15.90;77.90;;;;;;5031969;28;20049;-84
2022/06/26 07:36:48;;;;;;;;;;;15.90;77.70;;;;;;5031016;28;20049;-84
2022/06/26 07:39:18;;;;;;;8.30;2.08;;;16.00;77.60;;;;;;5032044;28;20316;-84
2022/06/26 07:41:46;;;;;;;6.15;1.80;;;16.00;77.50;;;;;;5030638;28;20453;-84
2022/06/26 07:44:14;;;;;;;8.68;2.22;;;16.10;77.30;;;;;;5032011;28;20069;-83
2022/06/26 07:46:41;;;;;;;6.88;1.92;;;16.10;77.20;;;;;;5030759;28;20046;-85
2022/06/26 07:49:08;;;;;;;5.97;1.70;;;16.10;77.20;;;;;;5033462;28;20172;-84
2022/06/26 07:51:35;;;;;;;5.95;1.63;;;16.20;77.10;;;;;;5031857;28;20059;-84
2022/06/26 07:54:03;;;;;;;7.50;1.90;;;16.30;77.00;;;;;;5029163;28;20045;-84
2022/06/26 07:56:30;;;;;;;7.38;2.25;;;16.30;76.90;;;;;;5026336;28;20050;-84
2022/06/26 07:58:58;;;;;;;5.38;1.55;;;16.40;76.70;;;;;;5026455;28;20046;-84
2022/06/26 08:01:26;;;;;;;7.00;1.70;;;16.40;76.60;;;;;;5044083;28;20060;-85
2022/06/26 08:03:54;;;;;;;8.65;1.80;;;16.40;76.40;;;;;;5028603;28;20099;-84
2022/06/26 08:06:21;;;;;;;6.85;1.70;;;16.50;76.20;;;;;;5028733;28;20077;-84
2022/06/26 08:08:48;;;;;;;5.80;1.85;;;16.60;75.90;;;;;;5028626;28;20050;-84
2022/06/26 08:11:16;;;;;;;5.30;1.70;;;16.70;75.80;;;;;;5028510;28;20057;-84
2022/06/26 08:13:43;;;;;;;5.65;1.80;;;16.80;75.60;;;;;;5030171;28;20094;-84
2022/06/26 08:16:11;;;;;;;7.20;1.83;;;16.90;75.40;;;;;;5031517;28;20049;-84
2022/06/26 08:18:38;;;;;;;7.90;1.60;;;16.90;75.20;;;;;;5026422;28;20075;-84
2022/06/26 08:23:50;;;;;;;8.27;1.60;;;17.00;74.60;;;;;;5030049;28;20092;-83
2022/06/26 08:26:17;;;;;;;9.07;1.65;;;17.10;74.30;;;;;;5028634;28;20041;-84
2022/06/26 08:28:44;;;;;;;6.53;1.77;;;17.20;74.10;;;;;;5030146;28;20068;-83
2022/06/26 08:31:12;;;;;;;6.97;1.52;;;17.30;73.90;;;;;;5032374;28;20045;-84
2022/06/26 08:33:39;;;;;;;5.75;1.67;;;17.30;73.70;;;;;;5027026;28;20046;-84
2022/06/26 08:36:06;;;;;;;5.32;1.35;;;17.40;73.40;;;;;;5028929;28;20058;-84
2022/06/26 08:38:33;;;;;;;6.20;1.55;;;17.50;73.20;;;;;;5028146;28;20052;-84
2022/06/26 08:41:01;;;;;;;6.85;1.77;;;17.50;73.00;;;;;;5028454;28;20095;-84
2022/06/26 08:43:28;;;;;;;4.75;1.38;;;17.60;72.80;;;;;;5029667;28;20053;-84
2022/06/26 08:46:04;;;;;;;5.50;1.40;;;17.70;72.60;;;;;;5028828;28;20056;-84
2022/06/26 08:48:40;;;;;;;3.95;1.30;;;17.70;72.30;;;;;;5029634;28;20053;-84
2022/06/26 08:51:08;;;;;;;8.93;1.50;;;17.80;72.00;;;;;;5027971;28;20050;-84
2022/06/26 08:53:35;;;;;;;7.70;1.65;;;17.90;71.80;;;;;;5026691;28;20449;-84
2022/06/26 08:56:03;;;;;;;8.57;1.67;;;17.90;71.50;;;;;;5027960;28;20042;-84
2022/06/26 08:58:30;;;;;;;9.02;1.55;;;17.90;71.10;;;;;;5029178;28;20049;-84
2022/06/26 09:00:57;;;;;;;7.63;1.33;;;18.00;70.90;;;;;;5030490;28;20045;-84
2022/06/26 09:03:24;;;;;;;9.10;1.70;;;18.10;70.60;;;;;;5027514;28;20521;-84
2022/06/26 09:05:51;;;;;;;4.95;1.33;;;18.10;70.20;;;;;;5026745;28;20164;-84
2022/06/26 09:08:19;;;;;;;5.53;1.50;;;18.20;69.80;;;;;;5027713;28;20041;-83
2022/06/26 09:10:48;;;;;;;5.60;1.15;;;18.20;69.60;;;;;;5028809;28;20054;-84
2022/06/26 09:13:15;;;;;;;6.30;1.40;;;18.30;69.50;;;;;;5030354;28;20046;-84
2022/06/26 09:15:44;;;;;;;6.10;1.67;;;18.30;69.30;;;;;;5027544;28;20045;-84
2022/06/26 09:18:18;;;;;;;5.03;1.60;;;18.40;69.00;;;;;;5027574;28;20053;-83
2022/06/26 09:21:06;;;;;;;6.95;1.50;;;18.40;68.80;;;;;;5027650;28;20057;-83
2022/06/26 09:23:35;;;;;;;6.45;1.55;;;18.40;68.60;;;;;;5027366;28;20048;-84
2022/06/26 09:26:03;;;;;;;7.43;1.60;;;18.40;68.50;;;;;;5027541;28;20391;-84
2022/06/26 09:28:31;;;;;;;3.75;1.02;;;18.50;68.30;;;;;;5030112;28;20111;-83
2022/06/26 09:30:59;;;;;;;5.72;1.50;;;18.50;68.10;;;;;;5034441;28;20049;-84
2022/06/26 09:33:31;;;;;;;7.80;1.60;;;18.60;67.90;;;;;;5031663;28;20103;-84
2022/06/26 09:35:59;;;;;;;6.13;1.45;;;18.70;67.70;;;;;;5030301;28;20046;-84
2022/06/26 09:38:32;;;;;;;7.47;1.50;;;18.70;67.40;;;;;;5030456;28;20107;-83
2022/06/26 09:41:04;;;;;;;5.80;1.35;;;18.90;67.20;;;;;;5029767;28;20049;-84
2022/06/26 09:43:36;;;;;;;5.22;1.30;;;18.90;66.90;;;;;;5033820;28;20061;-84
2022/06/26 09:46:08;;;;;;;7.47;1.50;;;18.90;66.70;;;;;;5033386;28;20049;-83
2022/06/26 09:48:36;;;;;;;5.68;1.23;;;19.00;66.60;;;;;;5031175;28;20052;-84
2022/06/26 09:51:08;;;;;;;6.70;1.30;;;19.10;66.40;;;;;;5030320;28;20049;-84
2022/06/26 09:53:37;;;;;;;5.68;1.73;;;19.10;66.20;;;;;;5031391;28;20044;-84
2022/06/26 09:56:07;;;;;;;8.13;1.52;;;19.20;65.90;;;;;;5031219;28;20053;-84
2022/06/26 09:58:34;;;;;;;4.55;1.30;;;19.30;65.80;;;;;;5033219;28;20056;-84
2022/06/26 10:06:36;;;;;;;8.32;1.55;;;19.60;65.00;;;;;;5030849;28;20054;-84
2022/06/26 10:09:06;;;;;;;8.52;1.27;;;19.70;64.60;;;;;;5029784;28;20045;-84
2022/06/26 10:11:36;;;;;;;5.80;1.30;;;19.80;64.40;;;;;;5030795;28;20061;-87
2022/06/26 10:14:18;;;;;;;4.95;1.23;;;19.90;64.20;;;;;;5029383;28;20450;-86
2022/06/26 10:17:07;;;;;;;6.70;1.27;;;19.90;63.90;;;;;;5030958;28;20430;-88
2022/06/26 10:19:43;;;;;;;3.05;1.08;;;20.00;63.70;;;;;;5029815;28;20063;-88
2022/06/26 10:22:11;;;;;;;5.55;1.30;;;20.10;63.50;;;;;;5033749;28;20053;-88
2022/06/26 10:25:09;;;;;;;3.30;1.10;;;20.20;63.20;;;;;;5029677;28;20049;-88
2022/06/26 10:27:37;;;;;;;3.78;1.33;;;20.30;63.00;;;;;;5028534;28;20061;-88
2022/06/26 10:30:15;;;;;;;3.92;1.27;;;20.40;62.80;;;;;;5030693;28;20045;-87
2022/06/26 10:32:45;;;;;;;2.95;0.90;;;20.40;62.50;;;;;;5029504;28;20103;-87
2022/06/26 10:35:13;;;;;;;3.97;1.20;;;20.50;62.30;;;;;;5029556;28;20049;-88
2022/06/26 10:37:45;;;;;;;6.75;1.45;;;20.60;62.20;;;;;;5032642;28;20049;-89
2022/06/26 10:43:13;;;;;;;7.57;1.65;;;20.80;61.70;;;;;;5032821;28;20556;-87
2022/06/26 10:45:41;;;;;;;4.30;1.23;;;20.90;61.50;;;;;;5028928;28;20049;-88
2022/06/26 10:48:20;;;;;;;6.40;1.52;;;20.90;61.30;;;;;;5028959;28;20057;-87
2022/06/26 10:51:03;;;;;;;3.80;1.30;;;21.00;61.10;;;;;;5029247;28;20460;-88
2022/06/26 10:53:36;;;;;;;5.85;1.23;;;21.10;60.80;;;;;;5028854;28;20418;-88
2022/06/26 10:56:06;;;;;;;5.43;1.10;;;21.20;60.60;;;;;;5030024;28;20050;-87
2022/06/26 10:58:45;;;;;;;5.97;1.20;;;21.20;60.40;;;;;;5032790;28;20564;-86
2022/06/26 11:01:13;;;;;;;5.40;1.42;;;21.30;60.20;;;;;;5033327;28;20057;-86
2022/06/26 11:03:41;;;;;;;8.10;1.50;;;21.40;60.10;;;;;;5031396;28;20051;-86
2022/06/26 11:06:14;;;;;;;7.78;1.20;;;21.40;59.90;;;;;;5029921;28;20066;-87
2022/06/26 11:08:52;;;;;;;4.38;1.33;;;21.50;59.60;;;;;;5030055;28;20125;-87
2022/06/26 11:11:37;;;;;;;7.88;1.50;;;21.60;59.40;;;;;;5029888;28;20044;-87
2022/06/26 11:14:07;;;;;;;6.93;1.30;;;21.60;59.20;;;;;;5015639;28;20498;-87
2022/06/26 11:16:52;;;;;;;5.35;1.25;;;21.60;59.00;;;;;;5031016;28;20060;-87
2022/06/26 11:19:23;;;;;;;5.70;1.35;;;21.80;58.70;;;;;;5034028;28;20056;-87
2022/06/26 11:22:02;;;;;;;7.80;1.00;;;21.80;58.60;;;;;;5024744;28;20061;-87
2022/06/26 11:24:29;;;;;;;4.60;1.23;;;21.80;58.50;;;;;;5026812;28;20054;-87
2022/06/26 11:26:57;;;;;;;4.30;1.20;;;21.90;58.40;;;;;;5028146;28;20037;-87
2022/06/26 11:29:24;;;;;;;6.00;1.33;;;21.90;58.20;;;;;;5029290;28;20053;-87
2022/06/26 11:31:53;;;;;;;6.85;0.98;;;21.90;58.00;;;;;;5014044;28;20403;-86
2022/06/26 11:34:20;;;;;;;6.57;1.13;;;21.90;57.90;;;;;;5029428;28;20053;-86
2022/06/26 11:36:49;;;;;;;4.40;1.30;;;21.90;57.90;;;;;;5029219;28;20057;-86
2022/06/26 11:39:24;;;;;;;8.55;1.38;;;21.90;57.80;;;;;;5028085;28;20403;-87
2022/06/26 11:41:51;;;;;;;4.90;1.40;;;21.90;57.70;;;;;;5029769;28;20052;-87
2022/06/26 11:44:18;;;;;;;5.82;1.30;;;21.90;57.60;;;;;;5029455;28;20494;-86
2022/06/26 11:46:45;;;;;;;4.63;1.30;;;21.90;57.60;;;;;;5030473;28;20408;-87
2022/06/26 11:49:12;;;;;;;4.53;1.30;;;21.90;57.50;;;;;;5031252;28;20053;-88
2022/06/26 11:51:39;;;;;;;6.18;1.10;;;21.90;57.50;;;;;;5028360;28;20053;-87
2022/06/26 11:54:06;;;;;;;7.63;1.33;;;21.90;57.50;;;;;;5027488;28;20045;-87
2022/06/26 11:56:34;;;;;;;6.10;1.20;;;21.90;57.50;;;;;;5030920;28;20061;-88
2022/06/26 11:59:01;;;;;;;4.40;1.05;;;21.90;57.50;;;;;;5029046;28;20049;-88
2022/06/26 12:01:34;;;;;;;6.18;1.52;;;21.90;57.50;;;;;;5032068;28;20421;-87
2022/06/26 12:04:01;;;;;;;4.10;1.10;;;21.90;57.40;;;;;;5031332;28;20056;-88
2022/06/26 12:06:33;;;;;;;6.78;1.30;;;21.90;57.40;;;;;;5028591;28;20084;-87
2022/06/26 12:09:19;;;;;;;4.72;1.23;;;21.90;57.40;;;;;;5028508;28;20124;-88
2022/06/26 12:11:50;;;;;;;7.60;1.58;;;21.90;57.40;;;;;;5027536;28;20140;-88
2022/06/26 12:14:19;;;;;;;5.10;1.30;;;21.90;57.40;;;;;;5027502;28;20042;-86
2022/06/26 12:16:48;;;;;;;6.75;1.85;;;21.90;57.30;;;;;;5028775;28;20053;-87
2022/06/26 12:19:16;;;;;;;8.40;1.20;;;21.90;57.40;;;;;;5031195;28;20124;-88
2022/06/26 12:21:47;;;;;;;4.68;1.20;;;21.90;57.30;;;;;;5031372;28;20051;-88
2022/06/26 12:24:15;;;;;;;8.68;1.20;;;21.90;57.30;;;;;;5029518;28;20099;-88
2022/06/26 12:26:43;;;;;;;4.97;1.20;;;22.00;57.20;;;;;;5024136;28;20045;-87
2022/06/26 12:29:15;;;;;;;6.25;1.35;;;22.00;57.20;;;;;;5028825;28;20418;-87
2022/06/26 12:31:50;;;;;;;7.22;1.65;;;22.00;57.20;;;;;;5031123;28;20422;-88
2022/06/26 12:34:17;;;;;;;11.43;1.45;;;22.10;57.10;;;;;;5031360;28;20081;-87
2022/06/26 12:36:44;;;;;;;5.88;1.52;;;22.10;57.00;;;;;;5027034;28;20076;-88
2022/06/26 12:39:11;;;;;;;5.18;1.45;;;22.10;56.90;;;;;;5025933;28;20049;-89
2022/06/26 12:41:58;;;;;;;4.65;1.17;;;22.10;56.90;;;;;;5030184;28;20049;-87
2022/06/26 12:44:25;;;;;;;6.53;1.30;;;22.10;56.80;;;;;;5029969;28;20525;-88
2022/06/26 12:46:52;;;;;;;4.85;1.27;;;22.20;56.80;;;;;;5028740;28;20053;-88
2022/06/26 12:49:19;;;;;;;5.15;1.17;;;22.20;56.70;;;;;;5032180;28;20553;-88
2022/06/26 12:51:47;;;;;;;7.03;1.30;;;22.30;56.60;;;;;;5027140;28;20124;-88
2022/06/26 12:54:14;;;;;;;4.28;1.30;;;22.30;56.40;;;;;;5029438;28;20049;-89
2022/06/26 12:56:41;;;;;;;6.47;1.50;;;22.30;56.30;;;;;;5027913;28;20045;-88
2022/06/26 12:59:08;;;;;;;4.50;1.10;;;22.40;56.20;;;;;;5029670;28;20053;-88
2022/06/26 13:01:35;;;;;;;5.13;1.20;;;22.40;56.20;;;;;;5030438;28;20053;-89
2022/06/26 13:04:03;;;;;;;6.75;1.50;;;22.40;56.10;;;;;;5030651;28;20057;-86
2022/06/26 13:06:30;;;;;;;4.47;1.10;;;22.40;56.00;;;;;;5027376;28;20502;-89
2022/06/26 13:08:58;;;;;;;3.78;1.13;;;22.40;56.00;;;;;;5029474;28;20046;-89